createdAt,value
2023-09-09T00:00:19.452Z,13.50
2023-09-09T00:03:23.542Z,13.17
2023-09-09T00:06:26.657Z,13.82
2023-09-09T00:09:29.600Z,14.73
2023-09-09T00:12:32.516Z,13.32
2023-09-09T00:15:36.926Z,13.82
2023-09-09T00:18:39.998Z,13.40
2023-09-09T00:21:42.958Z,13.45
2023-09-09T00:24:45.883Z,13.38
2023-09-09T00:27:48.823Z,14.15
2023-09-09T00:30:53.094Z,14.75
2023-09-09T00:33:56.640Z,14.45
2023-09-09T00:36:59.577Z,13.35
2023-09-09T00:40:02.553Z,14.18
2023-09-09T00:43:05.998Z,14.23
2023-09-09T00:46:11.002Z,15.15
2023-09-09T00:49:14.130Z,14.70
2023-09-09T00:52:17.131Z,15.02
2023-09-09T00:55:20.253Z,14.52
2023-09-09T00:58:24.297Z,14.52
2023-09-09T01:01:28.698Z,13.77
2023-09-09T01:04:32.166Z,14.05
2023-09-09T01:07:45.681Z,14.37
2023-09-09T01:10:48.740Z,13.02
2023-09-09T01:13:51.734Z,14.10
2023-09-09T01:16:57.193Z,13.82
2023-09-09T01:20:02.243Z,13.32
2023-09-09T01:23:06.760Z,14.10
2023-09-09T01:26:09.714Z,14.57
2023-09-09T01:29:12.890Z,14.23
2023-09-09T01:32:16.183Z,13.05
2023-09-09T01:35:19.316Z,13.77
2023-09-09T01:38:24.440Z,14.80
2023-09-09T01:41:27.420Z,13.77
2023-09-09T01:44:30.344Z,14.07
2023-09-09T01:47:33.394Z,13.55
2023-09-09T01:50:36.488Z,13.18
2023-09-09T01:53:40.865Z,13.48
2023-09-09T01:56:43.843Z,14.38
2023-09-09T01:59:46.836Z,13.40
2023-09-09T02:02:50.034Z,12.93
2023-09-09T02:05:53.098Z,13.02
2023-09-09T02:08:57.384Z,13.43
2023-09-09T02:12:04.372Z,13.27
2023-09-09T02:15:08.178Z,13.57
2023-09-09T02:18:11.219Z,13.88
2023-09-09T02:21:14.184Z,13.82
2023-09-09T02:24:18.530Z,13.05
2023-09-09T02:27:21.460Z,12.77
2023-09-09T02:30:24.844Z,13.55
2023-09-09T02:33:28.073Z,13.20
2023-09-09T02:36:31.066Z,14.00
2023-09-09T02:39:35.369Z,13.80
2023-09-09T02:42:38.322Z,12.40
2023-09-09T02:45:41.283Z,13.15
2023-09-09T02:48:44.655Z,13.70
2023-09-09T02:51:47.619Z,13.77
2023-09-09T02:54:53.831Z,13.27
2023-09-09T02:57:56.803Z,14.27
2023-09-09T03:01:05.820Z,12.77
2023-09-09T03:04:08.885Z,14.43
2023-09-09T03:07:12.062Z,12.65
2023-09-09T03:10:16.618Z,13.25
2023-09-09T03:13:19.573Z,12.93
2023-09-09T03:16:22.633Z,12.68
2023-09-09T03:19:25.628Z,12.27
2023-09-09T03:22:28.559Z,13.17
2023-09-09T03:25:33.071Z,13.13
2023-09-09T03:28:36.072Z,12.38
2023-09-09T03:31:39.056Z,12.98
2023-09-09T03:34:42.178Z,12.30
2023-09-09T03:37:45.190Z,12.90
2023-09-09T03:40:49.486Z,12.52
2023-09-09T03:43:52.504Z,12.65
2023-09-09T03:46:55.456Z,12.50
2023-09-09T03:49:58.387Z,13.23
2023-09-09T03:53:01.745Z,12.85
2023-09-09T03:56:06.489Z,12.27
2023-09-09T03:59:09.571Z,12.68
2023-09-09T04:02:12.550Z,13.55
2023-09-09T04:05:15.698Z,13.07
2023-09-09T04:08:18.822Z,12.63
2023-09-09T04:11:23.162Z,12.43
2023-09-09T04:14:26.186Z,12.90
2023-09-09T04:17:29.328Z,12.95
2023-09-09T04:20:32.576Z,12.75
2023-09-09T04:23:35.970Z,12.00
2023-09-09T04:26:40.426Z,11.95
2023-09-09T04:29:43.514Z,12.05
2023-09-09T04:32:46.545Z,12.70
2023-09-09T04:35:49.635Z,12.88
2023-09-09T04:38:52.603Z,12.55
2023-09-09T04:41:56.949Z,12.50
2023-09-09T04:44:59.959Z,12.65
2023-09-09T04:48:04.020Z,12.73
2023-09-09T04:51:07.066Z,12.10
2023-09-09T04:54:10.086Z,11.48
2023-09-09T04:57:14.363Z,12.32
2023-09-09T05:00:17.595Z,12.05
2023-09-09T05:03:20.728Z,12.85
2023-09-09T05:06:23.773Z,12.33
2023-09-09T05:09:27.088Z,11.57
2023-09-09T05:12:31.696Z,11.90
2023-09-09T05:15:36.619Z,12.40
2023-09-09T05:18:39.571Z,12.35
2023-09-09T05:21:42.537Z,12.85
2023-09-09T05:24:45.485Z,12.40
2023-09-09T05:27:49.869Z,12.93
2023-09-09T05:30:52.821Z,13.50
2023-09-09T05:33:55.874Z,15.82
2023-09-09T05:36:58.855Z,18.60
2023-09-09T05:40:04.549Z,16.98
2023-09-09T05:43:09.191Z,17.10
2023-09-09T05:46:12.729Z,16.80
2023-09-09T05:49:27.785Z,16.23
2023-09-09T05:52:36.043Z,15.88
2023-09-09T05:55:39.494Z,16.58
2023-09-09T05:58:43.836Z,16.88
2023-09-09T06:01:46.890Z,16.92
2023-09-09T06:04:49.988Z,17.70
2023-09-09T06:07:53.221Z,16.63
2023-09-09T06:10:56.215Z,16.65
2023-09-09T06:14:00.558Z,16.55
2023-09-09T06:17:03.834Z,16.27
2023-09-09T06:20:07.888Z,17.30
2023-09-09T06:23:10.971Z,16.23
2023-09-09T06:26:13.937Z,16.63
2023-09-09T06:29:18.356Z,17.40
2023-09-09T06:32:21.559Z,18.50
2023-09-09T06:35:24.520Z,18.23
2023-09-09T06:38:27.641Z,19.25
2023-09-09T06:41:30.717Z,18.75
2023-09-09T06:44:35.042Z,19.85
2023-09-09T06:47:38.100Z,19.98
2023-09-09T06:50:41.172Z,17.73
2023-09-09T06:53:44.253Z,17.77
2023-09-09T06:56:48.246Z,15.15
2023-09-09T06:59:52.597Z,14.77
2023-09-09T07:02:55.654Z,14.63
2023-09-09T07:06:01.210Z,15.52
2023-09-09T07:09:04.215Z,16.23
2023-09-09T07:12:08.047Z,13.52
2023-09-09T07:15:12.979Z,14.07
2023-09-09T07:18:16.066Z,14.60
2023-09-09T07:21:19.174Z,15.63
2023-09-09T07:24:22.113Z,14.60
2023-09-09T07:27:25.024Z,15.55
2023-09-09T07:30:29.646Z,14.77
2023-09-09T07:33:32.568Z,14.73
2023-09-09T07:36:35.486Z,14.02
2023-09-09T07:39:46.932Z,14.77
2023-09-09T07:42:51.196Z,14.53
2023-09-09T07:45:56.640Z,15.93
2023-09-09T07:48:59.849Z,13.00
2023-09-09T07:52:03.608Z,14.68
2023-09-09T07:55:07.365Z,15.00
2023-09-09T07:58:10.401Z,13.00
2023-09-09T08:01:15.250Z,13.65
2023-09-09T08:04:18.396Z,11.33
2023-09-09T08:07:21.438Z,12.23
2023-09-09T08:10:24.536Z,12.00
2023-09-09T08:13:28.166Z,13.05
2023-09-09T08:16:33.948Z,11.73
2023-09-09T08:19:37.212Z,11.10
2023-09-09T08:22:40.238Z,11.03
2023-09-09T08:25:43.219Z,10.65
2023-09-09T08:28:46.187Z,11.48
2023-09-09T08:31:50.579Z,11.48
2023-09-09T08:34:54.088Z,11.10
2023-09-09T08:37:57.031Z,10.90
2023-09-09T08:41:06.084Z,11.02
2023-09-09T08:44:16.856Z,11.38
2023-09-09T08:47:22.860Z,12.35
2023-09-09T08:50:27.159Z,11.60
2023-09-09T08:53:32.935Z,10.23
2023-09-09T08:56:36.359Z,10.90
2023-09-09T08:59:42.040Z,10.90
2023-09-09T09:02:47.599Z,11.07
2023-09-09T09:05:52.671Z,9.87
2023-09-09T09:08:55.610Z,9.90
2023-09-09T09:12:01.330Z,11.75
2023-09-09T09:15:04.860Z,10.50
2023-09-09T09:18:10.352Z,10.07
2023-09-09T09:21:13.460Z,10.07
2023-09-09T09:24:16.687Z,11.45
2023-09-09T09:27:19.627Z,9.50
2023-09-09T09:30:26.991Z,9.50
2023-09-09T09:33:34.134Z,10.30
2023-09-09T09:36:37.369Z,9.73
2023-09-09T09:39:40.701Z,10.32
2023-09-09T09:42:44.681Z,9.82
2023-09-09T09:45:47.995Z,9.38
2023-09-09T09:48:52.310Z,10.15
2023-09-09T09:51:55.446Z,9.55
2023-09-09T09:54:58.494Z,9.05
2023-09-09T09:58:03.806Z,9.13
2023-09-09T10:01:08.543Z,9.50
2023-09-09T10:04:17.253Z,9.07
2023-09-09T10:07:24.355Z,9.23
2023-09-09T10:10:29.170Z,9.00
2023-09-09T10:13:40.224Z,9.73
2023-09-09T10:16:45.745Z,8.52
2023-09-09T10:19:54.322Z,7.95
2023-09-09T10:23:00.758Z,8.90
2023-09-09T10:26:04.462Z,8.77
2023-09-09T10:29:08.246Z,8.83
2023-09-09T10:32:14.331Z,8.90
2023-09-09T10:35:20.380Z,8.98
2023-09-09T10:38:25.624Z,9.30
2023-09-09T10:41:28.583Z,8.90
2023-09-09T10:44:31.586Z,8.25
2023-09-09T10:47:34.537Z,8.03
2023-09-09T10:50:45.251Z,8.07
2023-09-09T10:54:07.138Z,7.45
2023-09-09T10:57:10.160Z,8.68
2023-09-09T11:00:40.896Z,7.70
2023-09-09T11:03:48.688Z,6.78
2023-09-09T11:07:10.049Z,6.60
2023-09-09T11:10:17.700Z,5.90
2023-09-09T11:13:20.805Z,6.15
2023-09-09T11:16:28.607Z,7.22
2023-09-09T11:19:32.185Z,6.85
2023-09-09T11:22:36.978Z,6.80
2023-09-09T11:25:40.151Z,6.90
2023-09-09T11:28:43.894Z,7.55
2023-09-09T11:31:47.103Z,7.22
2023-09-09T11:34:50.396Z,7.10
2023-09-09T11:38:03.874Z,6.50
2023-09-09T11:41:06.962Z,6.67
2023-09-09T11:44:10.907Z,6.40
2023-09-09T11:47:14.289Z,6.47
2023-09-09T11:50:17.407Z,6.38
2023-09-09T11:53:23.714Z,6.60
2023-09-09T11:56:27.035Z,6.15
2023-09-09T11:59:29.985Z,6.45
2023-09-09T12:02:33.062Z,6.43
2023-09-09T12:05:36.664Z,6.37
2023-09-09T12:08:41.913Z,6.33
2023-09-09T12:11:45.849Z,6.27
2023-09-09T12:14:49.871Z,5.63
2023-09-09T12:17:53.364Z,6.43
2023-09-09T12:21:04.761Z,7.70
2023-09-09T12:24:09.375Z,6.28
2023-09-09T12:27:12.350Z,5.80
2023-09-09T12:30:37.966Z,6.03
2023-09-09T12:33:45.706Z,5.87
2023-09-09T12:36:49.669Z,6.13
2023-09-09T12:40:02.522Z,5.45
2023-09-09T12:43:11.797Z,5.87
2023-09-09T12:46:19.308Z,5.68
2023-09-09T12:49:22.852Z,6.05
2023-09-09T12:52:33.383Z,5.40
2023-09-09T12:55:37.932Z,5.67
2023-09-09T12:58:41.083Z,5.60
2023-09-09T13:01:44.162Z,5.93
2023-09-09T13:04:47.145Z,5.88
2023-09-09T13:07:50.579Z,5.32
2023-09-09T13:14:12.881Z,5.40
2023-09-09T13:17:16.345Z,5.57
2023-09-09T13:20:19.720Z,5.83
2023-09-09T13:23:22.758Z,5.35
2023-09-09T13:26:27.182Z,5.35
2023-09-09T13:29:30.631Z,5.35
2023-09-09T13:32:33.747Z,5.22
2023-09-09T13:35:36.796Z,5.10
2023-09-09T13:38:39.742Z,5.40
2023-09-09T13:41:44.320Z,5.53
2023-09-09T13:45:10.017Z,5.70
2023-09-09T13:48:10.231Z,5.68
2023-09-09T13:51:13.264Z,5.28
2023-09-09T13:54:16.391Z,5.22
2023-09-09T13:57:20.744Z,5.50
2023-09-09T14:00:23.897Z,5.03
2023-09-09T14:03:26.957Z,5.32
2023-09-09T14:06:30.039Z,5.82
2023-09-09T14:09:33.047Z,6.30
2023-09-09T14:12:42.327Z,5.23
2023-09-09T14:15:45.453Z,4.75
2023-09-09T14:18:48.488Z,5.25
2023-09-09T14:21:51.584Z,5.00
2023-09-09T14:24:54.645Z,4.97
2023-09-09T14:27:58.958Z,5.00
2023-09-09T14:31:02.028Z,4.95
2023-09-09T14:34:05.164Z,5.22
2023-09-09T14:37:08.219Z,5.40
2023-09-09T14:40:11.717Z,4.95
2023-09-09T14:43:16.637Z,4.88
2023-09-09T14:46:24.262Z,4.83
2023-09-09T14:49:27.248Z,5.75
2023-09-09T14:52:31.363Z,5.22
2023-09-09T14:55:34.637Z,5.20
2023-09-09T14:58:39.483Z,4.90
2023-09-09T15:01:42.649Z,5.60
2023-09-09T15:04:45.642Z,5.20
2023-09-09T15:07:48.964Z,5.50
2023-09-09T15:10:52.150Z,5.35
2023-09-09T15:13:56.507Z,5.07
2023-09-09T15:16:59.492Z,5.13
2023-09-09T15:20:02.438Z,5.15
2023-09-09T15:23:05.704Z,5.05
2023-09-09T15:26:09.353Z,5.03
2023-09-09T15:29:13.739Z,9.13
2023-09-09T15:32:16.790Z,5.35
2023-09-09T15:35:19.834Z,5.03
2023-09-09T15:38:22.853Z,5.73
2023-09-09T15:41:25.867Z,5.22
2023-09-09T15:44:30.213Z,4.97
2023-09-09T15:47:33.233Z,5.45
2023-09-09T15:50:36.204Z,5.15
2023-09-09T15:53:39.649Z,5.18
2023-09-09T15:56:42.676Z,4.63
2023-09-09T15:59:47.280Z,5.60
2023-09-09T16:02:50.754Z,5.13
2023-09-09T16:05:53.816Z,5.05
2023-09-09T16:08:56.784Z,5.47
2023-09-09T16:11:59.745Z,5.45
2023-09-09T16:15:05.174Z,5.28
2023-09-09T16:18:08.261Z,5.70
2023-09-09T16:21:11.240Z,4.93
2023-09-09T16:24:14.466Z,5.57
2023-09-09T16:27:17.394Z,5.65
2023-09-09T16:30:22.081Z,5.30
2023-09-09T16:33:25.076Z,5.25
2023-09-09T16:36:28.051Z,5.30
2023-09-09T16:39:31.002Z,5.10
2023-09-09T16:42:33.935Z,12.52
2023-09-09T16:45:38.326Z,5.67
2023-09-09T16:48:41.323Z,5.47
2023-09-09T16:51:44.284Z,5.32
2023-09-09T16:54:47.240Z,6.17
2023-09-09T16:57:50.413Z,5.85
2023-09-09T17:00:54.739Z,5.90
2023-09-09T17:03:58.255Z,6.97
2023-09-09T17:07:01.537Z,6.75
2023-09-09T17:10:04.683Z,7.70
2023-09-09T17:13:08.593Z,7.43
2023-09-09T17:16:12.963Z,7.28
2023-09-09T17:19:16.095Z,6.60
2023-09-09T17:22:19.044Z,6.97
2023-09-09T17:25:22.049Z,6.47
2023-09-09T17:28:25.388Z,7.63
2023-09-09T17:31:29.972Z,7.22
2023-09-09T17:34:40.181Z,7.38
2023-09-09T17:37:43.211Z,8.27
2023-09-09T17:40:46.223Z,7.53
2023-09-09T17:43:49.368Z,7.68
2023-09-09T17:46:54.011Z,7.60
2023-09-09T17:49:57.148Z,7.88
2023-09-09T17:53:00.236Z,8.40
2023-09-09T17:56:03.363Z,7.27
2023-09-09T17:59:06.436Z,8.38
2023-09-09T18:02:10.729Z,8.23
2023-09-09T18:05:13.978Z,7.95
2023-09-09T18:08:17.004Z,7.60
2023-09-09T18:11:21.514Z,9.02
2023-09-09T18:14:24.704Z,8.18
2023-09-09T18:17:29.134Z,8.03
2023-09-09T18:20:32.186Z,8.07
2023-09-09T18:23:35.159Z,8.40
2023-09-09T18:26:38.114Z,8.77
2023-09-09T18:29:41.106Z,10.00
2023-09-09T18:32:45.439Z,9.60
2023-09-09T18:35:48.379Z,12.60
2023-09-09T18:38:51.332Z,15.90
2023-09-09T18:41:54.293Z,16.60
2023-09-09T18:44:57.250Z,15.55
2023-09-09T18:48:01.571Z,15.02
2023-09-09T18:51:04.684Z,15.15
2023-09-09T18:54:07.709Z,13.80
2023-09-09T18:57:10.912Z,14.40
2023-09-09T19:00:14.526Z,17.50
2023-09-09T19:03:20.166Z,16.47
2023-09-09T19:06:23.335Z,18.13
2023-09-09T19:09:26.257Z,19.50
2023-09-09T19:12:29.331Z,18.63
2023-09-09T19:15:32.294Z,19.65
2023-09-09T19:18:36.789Z,17.38
2023-09-09T19:21:39.989Z,18.15
2023-09-09T19:24:43.079Z,17.58
2023-09-09T19:27:46.957Z,16.70
2023-09-09T19:30:49.935Z,15.68
2023-09-09T19:33:54.262Z,15.90
2023-09-09T19:36:57.178Z,15.27
2023-09-09T19:40:00.373Z,16.27
2023-09-09T19:43:04.733Z,14.93
2023-09-09T19:46:09.352Z,14.93
2023-09-09T19:49:13.832Z,14.95
2023-09-09T19:52:17.376Z,14.63
2023-09-09T19:55:20.311Z,15.48
2023-09-09T19:58:23.316Z,16.25
2023-09-09T20:01:26.503Z,16.85
2023-09-09T20:04:31.197Z,17.52
2023-09-09T20:07:34.301Z,18.30
2023-09-09T20:10:37.302Z,19.95
2023-09-09T20:13:40.324Z,20.75
2023-09-09T20:16:43.581Z,19.00
2023-09-09T20:19:48.027Z,20.27
2023-09-09T20:22:51.046Z,18.83
2023-09-09T20:25:54.147Z,17.97
2023-09-09T20:28:57.179Z,18.40
2023-09-09T20:32:00.243Z,17.88
2023-09-09T20:35:19.162Z,17.23
2023-09-09T20:38:27.860Z,16.35
2023-09-09T20:41:30.774Z,16.67
2023-09-09T20:44:33.705Z,16.65
2023-09-09T20:47:36.841Z,16.40
2023-09-09T20:50:41.230Z,16.52
2023-09-09T20:53:46.186Z,17.45
2023-09-09T20:56:49.212Z,16.58
2023-09-09T20:59:52.166Z,16.55
2023-09-09T21:02:56.454Z,16.60
2023-09-09T21:06:00.791Z,17.13
2023-09-09T21:09:04.097Z,17.20
2023-09-09T21:12:07.504Z,17.00
2023-09-09T21:15:13.398Z,17.20
2023-09-09T21:18:16.532Z,16.58
2023-09-09T21:21:20.841Z,17.77
2023-09-09T21:24:24.090Z,16.17
2023-09-09T21:27:27.077Z,16.85
2023-09-09T21:30:30.147Z,16.27
2023-09-09T21:33:33.289Z,15.73
2023-09-09T21:36:37.750Z,16.10
2023-09-09T21:39:40.968Z,15.55
2023-09-09T21:42:44.029Z,15.60
2023-09-09T21:45:47.141Z,15.10
2023-09-09T21:48:50.458Z,15.07
2023-09-09T21:51:55.226Z,15.27
2023-09-09T21:54:58.176Z,15.07
2023-09-09T21:58:01.124Z,15.13
2023-09-09T22:01:09.158Z,15.27
2023-09-09T22:04:12.201Z,15.27
2023-09-09T22:07:16.851Z,15.95
2023-09-09T22:10:20.046Z,15.93
2023-09-09T22:13:22.986Z,15.33
2023-09-09T22:16:26.023Z,16.52
2023-09-09T22:19:29.171Z,15.45
2023-09-09T22:22:33.599Z,15.65
2023-09-09T22:25:36.732Z,16.13
2023-09-09T22:28:39.844Z,16.00
2023-09-09T22:31:43.246Z,15.35
2023-09-09T22:34:46.762Z,14.80
2023-09-09T22:37:51.231Z,15.38
2023-09-09T22:40:54.290Z,15.60
2023-09-09T22:43:57.395Z,15.55
2023-09-09T22:47:00.407Z,15.10
2023-09-09T22:50:04.811Z,15.20
2023-09-09T22:53:09.292Z,15.48
2023-09-09T22:56:12.585Z,14.77
2023-09-09T22:59:15.620Z,14.63
2023-09-09T23:02:18.674Z,15.13
2023-09-09T23:05:21.671Z,14.73
2023-09-09T23:08:26.000Z,14.63
2023-09-09T23:11:29.011Z,14.93
2023-09-09T23:14:31.950Z,15.75
2023-09-09T23:17:35.063Z,14.90
2023-09-09T23:20:38.031Z,14.63
2023-09-09T23:23:42.368Z,14.70
2023-09-09T23:26:45.392Z,15.80
2023-09-09T23:29:48.372Z,15.45
2023-09-09T23:32:51.414Z,14.48
2023-09-09T23:35:54.788Z,15.40
2023-09-09T23:39:05.656Z,14.38
2023-09-09T23:42:08.756Z,15.40
2023-09-09T23:45:12.199Z,14.40
2023-09-09T23:48:16.069Z,14.48
2023-09-09T23:51:19.067Z,14.57
2023-09-09T23:54:23.596Z,14.32
2023-09-09T23:57:26.558Z,14.00
